createdAt,value
2022-11-05T00:02:25.063Z,2.20
2022-11-05T00:05:11.630Z,2.23
2022-11-05T00:08:00.983Z,2.60
2022-11-05T00:10:31.557Z,2.50
2022-11-05T00:13:18.431Z,2.70
2022-11-05T00:16:04.113Z,2.97
2022-11-05T00:18:32.177Z,2.87
2022-11-05T00:21:00.938Z,2.80
2022-11-05T00:23:46.125Z,2.80
2022-11-05T00:26:13.811Z,2.43
2022-11-05T00:28:44.035Z,2.57
2022-11-05T00:31:13.652Z,2.50
2022-11-05T00:33:43.321Z,2.20
2022-11-05T00:36:12.744Z,1.90
2022-11-05T00:38:40.144Z,1.90
2022-11-05T00:41:07.773Z,2.13
2022-11-05T00:43:52.852Z,2.10
2022-11-05T00:46:20.267Z,2.10
2022-11-05T00:49:05.402Z,1.90
2022-11-05T00:51:34.170Z,2.00
2022-11-05T00:54:01.585Z,2.23
2022-11-05T00:56:29.065Z,2.50
2022-11-05T00:58:56.596Z,2.10
2022-11-05T01:01:24.167Z,2.60
2022-11-05T01:03:52.166Z,3.07
2022-11-05T01:06:20.164Z,3.40
2022-11-05T01:08:48.993Z,3.33
2022-11-05T01:11:33.042Z,3.37
2022-11-05T01:14:01.530Z,3.50
2022-11-05T01:16:29.150Z,3.53
2022-11-05T01:18:56.556Z,3.33
2022-11-05T01:21:24.287Z,3.90
2022-11-05T01:23:54.038Z,3.70
2022-11-05T01:26:21.754Z,3.60
2022-11-05T01:28:51.667Z,4.17
2022-11-05T01:31:19.189Z,3.73
2022-11-05T01:33:46.909Z,4.23
2022-11-05T01:36:14.913Z,4.43
2022-11-05T01:38:42.385Z,4.53
2022-11-05T01:41:11.426Z,4.47
2022-11-05T01:43:48.452Z,4.60
2022-11-05T01:46:18.605Z,4.60
2022-11-05T01:48:48.316Z,4.43
2022-11-05T01:51:19.945Z,4.40
2022-11-05T01:53:50.535Z,4.50
2022-11-05T01:56:26.085Z,4.60
2022-11-05T01:58:57.769Z,5.10
2022-11-05T02:01:25.698Z,5.30
2022-11-05T02:03:56.224Z,5.20
2022-11-05T02:06:23.692Z,5.40
2022-11-05T02:08:58.044Z,4.87
2022-11-05T02:11:27.340Z,5.00
2022-11-05T02:13:54.802Z,5.57
2022-11-05T02:16:39.724Z,5.50
2022-11-05T02:19:24.705Z,5.23
2022-11-05T02:22:16.031Z,5.60
2022-11-05T02:25:16.244Z,5.93
2022-11-05T02:28:15.904Z,5.30
2022-11-05T02:30:53.592Z,5.33
2022-11-05T02:33:32.355Z,5.70
2022-11-05T02:36:13.332Z,5.83
2022-11-05T02:38:51.245Z,5.43
2022-11-05T02:41:25.712Z,5.60
2022-11-05T02:44:13.682Z,5.20
2022-11-05T02:46:52.538Z,5.27
2022-11-05T02:49:29.820Z,5.23
2022-11-05T02:51:59.099Z,5.40
2022-11-05T02:54:34.069Z,5.50
2022-11-05T02:57:03.405Z,5.83
2022-11-05T02:59:31.332Z,5.63
2022-11-05T03:02:01.727Z,5.93
2022-11-05T03:04:32.057Z,5.97
2022-11-05T03:07:20.411Z,6.77
2022-11-05T03:10:06.924Z,6.83
2022-11-05T03:12:44.597Z,6.50
2022-11-05T03:15:21.885Z,7.67
2022-11-05T03:18:01.906Z,6.53
2022-11-05T03:20:36.796Z,7.60
2022-11-05T03:23:13.818Z,6.83
2022-11-05T03:25:47.153Z,7.20
2022-11-05T03:28:16.253Z,6.90
2022-11-05T03:30:45.098Z,7.10
2022-11-05T03:33:19.452Z,6.67
2022-11-05T03:35:51.440Z,7.00
2022-11-05T03:38:24.564Z,7.63
2022-11-05T03:40:56.054Z,6.97
2022-11-05T03:43:28.767Z,7.10
2022-11-05T03:46:01.502Z,7.53
2022-11-05T03:48:32.735Z,7.47
2022-11-05T03:51:09.244Z,7.93
2022-11-05T03:53:42.378Z,8.20
2022-11-05T03:56:13.596Z,7.93
2022-11-05T03:58:44.124Z,7.87
2022-11-05T04:01:12.221Z,8.00
2022-11-05T04:03:41.062Z,8.60
2022-11-05T04:06:28.777Z,9.00
2022-11-05T04:09:13.909Z,8.20
2022-11-05T04:11:59.505Z,8.13
2022-11-05T04:14:26.983Z,8.10
2022-11-05T04:17:09.807Z,8.20
2022-11-05T04:19:56.812Z,7.97
2022-11-05T04:22:42.376Z,7.97
2022-11-05T04:25:10.418Z,8.20
2022-11-05T04:27:38.124Z,7.97
2022-11-05T04:30:21.687Z,7.90
2022-11-05T04:33:00.878Z,7.90
2022-11-05T04:35:31.347Z,8.03
2022-11-05T04:37:58.839Z,7.60
2022-11-05T04:40:27.472Z,7.57
2022-11-05T04:42:56.050Z,7.07
2022-11-05T04:45:24.208Z,7.77
2022-11-05T04:47:51.849Z,6.97
2022-11-05T04:50:19.253Z,6.97
2022-11-05T04:52:48.382Z,6.47
2022-11-05T04:55:16.267Z,7.07
2022-11-05T04:57:44.093Z,6.80
2022-11-05T05:00:12.192Z,7.10
2022-11-05T05:02:39.613Z,6.77
2022-11-05T05:05:07.247Z,6.07
2022-11-05T05:07:35.518Z,6.90
2022-11-05T05:10:07.388Z,6.73
2022-11-05T05:12:35.247Z,7.60
2022-11-05T05:15:03.002Z,7.10
2022-11-05T05:17:30.445Z,7.53
2022-11-05T05:20:15.923Z,7.17
2022-11-05T05:22:43.457Z,7.70
2022-11-05T05:25:12.437Z,8.27
2022-11-05T05:27:39.847Z,8.47
2022-11-05T05:30:08.768Z,9.07
2022-11-05T05:32:36.198Z,9.40
2022-11-05T05:35:03.717Z,9.17
2022-11-05T05:37:31.141Z,7.83
2022-11-05T05:39:58.552Z,8.23
2022-11-05T05:42:27.327Z,8.57
2022-11-05T05:44:54.713Z,6.93
2022-11-05T05:47:22.159Z,7.13
2022-11-05T05:49:49.606Z,6.33
2022-11-05T05:52:17.021Z,6.03
2022-11-05T05:54:44.439Z,5.83
2022-11-05T05:57:11.881Z,4.93
2022-11-05T05:59:40.609Z,5.30
2022-11-05T06:02:08.038Z,5.00
2022-11-05T06:04:35.613Z,5.13
2022-11-05T06:07:03.035Z,5.30
2022-11-05T06:09:30.517Z,4.73
2022-11-05T06:11:58.013Z,5.17
2022-11-05T06:14:25.411Z,5.30
2022-11-05T06:16:54.145Z,5.13
2022-11-05T06:19:21.639Z,5.50
2022-11-05T06:21:49.081Z,5.37
2022-11-05T06:24:16.727Z,4.87
2022-11-05T06:26:44.954Z,5.10
2022-11-05T06:29:12.391Z,5.67
2022-11-05T06:31:39.813Z,4.97
2022-11-05T06:34:08.601Z,5.27
2022-11-05T06:36:36.025Z,5.03
2022-11-05T06:39:03.477Z,5.23
2022-11-05T06:41:31.267Z,5.57
2022-11-05T06:43:58.665Z,5.37
2022-11-05T06:46:26.078Z,5.37
2022-11-05T06:48:53.504Z,5.60
2022-11-05T06:51:22.573Z,5.93
2022-11-05T06:53:49.964Z,6.00
2022-11-05T06:56:17.369Z,6.20
2022-11-05T06:58:44.820Z,6.20
2022-11-05T07:01:13.926Z,6.10
2022-11-05T07:03:41.417Z,5.97
2022-11-05T07:06:09.251Z,6.07
2022-11-05T07:08:39.064Z,5.67
2022-11-05T07:11:06.844Z,6.17
2022-11-05T07:13:34.376Z,6.10
2022-11-05T07:16:01.936Z,6.20
2022-11-05T07:18:29.382Z,6.70
2022-11-05T07:20:56.824Z,5.73
2022-11-05T07:23:24.421Z,5.70
2022-11-05T07:25:53.178Z,5.83
2022-11-05T07:28:20.649Z,5.77
2022-11-05T07:30:48.801Z,6.40
2022-11-05T07:33:16.248Z,5.50
2022-11-05T07:35:43.656Z,6.47
2022-11-05T07:38:11.844Z,6.03
2022-11-05T07:40:39.269Z,5.50
2022-11-05T07:43:09.686Z,5.37
2022-11-05T07:45:37.392Z,5.83
2022-11-05T07:48:05.655Z,5.50
2022-11-05T07:50:34.827Z,5.87
2022-11-05T07:53:03.135Z,5.93
2022-11-05T07:55:31.252Z,6.30
2022-11-05T07:57:59.051Z,6.20
2022-11-05T08:00:29.352Z,6.43
2022-11-05T08:03:03.996Z,6.07
2022-11-05T08:05:36.487Z,6.83
2022-11-05T08:08:04.442Z,6.80
2022-11-05T08:10:32.393Z,8.87
2022-11-05T08:13:00.048Z,10.00
2022-11-05T08:15:29.271Z,7.50
2022-11-05T08:18:00.550Z,6.93
2022-11-05T08:20:28.499Z,6.67
2022-11-05T08:22:56.933Z,5.57
2022-11-05T08:25:25.284Z,5.73
2022-11-05T08:27:56.956Z,5.47
2022-11-05T08:30:24.772Z,6.30
2022-11-05T08:32:57.643Z,5.53
2022-11-05T08:35:25.146Z,5.43
2022-11-05T08:37:56.341Z,4.90
2022-11-05T08:40:23.793Z,5.27
2022-11-05T08:42:51.222Z,5.00
2022-11-05T08:45:18.648Z,4.40
2022-11-05T08:47:46.149Z,4.45
2022-11-05T08:50:14.900Z,4.28
2022-11-05T08:52:42.429Z,4.38
2022-11-05T08:55:10.598Z,4.43
2022-11-05T08:57:38.045Z,4.10
2022-11-05T09:00:06.448Z,4.07
2022-11-05T09:02:33.972Z,3.55
2022-11-05T09:05:01.477Z,4.88
2022-11-05T09:07:30.258Z,4.50
2022-11-05T09:09:57.724Z,3.85
2022-11-05T09:12:25.192Z,3.72
2022-11-05T09:14:52.743Z,3.50
2022-11-05T09:17:22.336Z,3.67
2022-11-05T09:19:50.025Z,3.63
2022-11-05T09:22:17.705Z,3.90
2022-11-05T09:24:46.456Z,3.38
2022-11-05T09:27:14.611Z,3.10
2022-11-05T09:29:42.501Z,3.00
2022-11-05T09:32:09.956Z,2.90
2022-11-05T09:34:37.630Z,2.90
2022-11-05T09:37:05.256Z,2.70
2022-11-05T09:39:32.683Z,3.28
2022-11-05T09:42:07.956Z,2.83
2022-11-05T09:44:41.833Z,3.13
2022-11-05T09:47:16.153Z,3.25
2022-11-05T09:49:47.969Z,2.80
2022-11-05T09:52:21.564Z,2.83
2022-11-05T09:54:50.389Z,2.85
2022-11-05T09:57:23.010Z,3.13
2022-11-05T09:59:53.952Z,2.95
2022-11-05T10:02:25.397Z,3.23
2022-11-05T10:04:56.809Z,2.70
2022-11-05T10:07:27.323Z,2.80
2022-11-05T10:09:58.637Z,2.33
2022-11-05T10:12:32.641Z,3.00
2022-11-05T10:15:08.281Z,2.63
2022-11-05T10:17:39.366Z,3.10
2022-11-05T10:20:15.372Z,3.20
2022-11-05T10:22:48.184Z,2.90
2022-11-05T10:25:19.829Z,3.20
2022-11-05T10:27:52.780Z,2.47
2022-11-05T10:30:20.908Z,2.57
2022-11-05T10:32:49.308Z,2.73
2022-11-05T10:35:22.403Z,2.40
2022-11-05T10:37:50.479Z,2.97
2022-11-05T10:40:28.953Z,2.78
2022-11-05T10:43:05.335Z,2.80
2022-11-05T10:45:41.397Z,2.60
2022-11-05T10:48:42.285Z,2.90
2022-11-05T10:51:11.920Z,2.92
2022-11-05T10:53:40.604Z,3.00
2022-11-05T10:56:29.386Z,2.47
2022-11-05T10:59:01.682Z,2.33
2022-11-05T11:01:30.139Z,2.90
2022-11-05T11:04:15.120Z,2.43
2022-11-05T11:06:49.524Z,2.40
2022-11-05T11:09:26.675Z,2.27
2022-11-05T11:12:01.903Z,2.30
2022-11-05T11:14:31.170Z,2.20
2022-11-05T11:17:18.956Z,2.10
2022-11-05T11:19:46.408Z,1.87
2022-11-05T11:22:22.291Z,1.92
2022-11-05T11:24:53.853Z,1.98
2022-11-05T11:27:24.821Z,1.80
2022-11-05T11:29:58.397Z,1.70
2022-11-05T11:32:32.827Z,1.80
2022-11-05T11:35:01.065Z,1.65
2022-11-05T11:37:31.284Z,1.58
2022-11-05T11:40:03.993Z,1.77
2022-11-05T11:42:34.682Z,1.60
2022-11-05T11:45:15.633Z,1.75
2022-11-05T11:47:45.124Z,1.50
2022-11-05T11:50:36.962Z,1.73
2022-11-05T11:53:27.961Z,1.92
2022-11-05T11:56:14.336Z,1.65
2022-11-05T11:58:44.829Z,1.70
2022-11-05T12:01:50.566Z,1.52
2022-11-05T12:04:27.404Z,1.35
2022-11-05T12:07:06.028Z,1.17
2022-11-05T12:09:46.937Z,1.50
2022-11-05T12:12:16.486Z,1.65
2022-11-05T12:14:51.812Z,1.60
2022-11-05T12:17:32.627Z,1.67
2022-11-05T12:20:15.857Z,1.90
2022-11-05T12:23:03.676Z,1.50
2022-11-05T12:25:41.342Z,1.65
2022-11-05T12:28:26.284Z,1.75
2022-11-05T12:31:01.111Z,1.63
2022-11-05T12:33:41.291Z,1.48
2022-11-05T12:36:20.345Z,1.60
2022-11-05T12:39:25.869Z,1.33
2022-11-05T12:42:02.202Z,1.30
2022-11-05T12:44:48.357Z,1.33
2022-11-05T12:47:32.887Z,1.40
2022-11-05T12:50:15.063Z,1.40
2022-11-05T12:53:09.247Z,1.45
2022-11-05T12:55:44.067Z,1.38
2022-11-05T12:58:16.218Z,1.80
2022-11-05T13:00:48.510Z,1.80
2022-11-05T13:03:26.719Z,1.85
2022-11-05T13:06:05.422Z,1.77
2022-11-05T13:08:39.581Z,1.90
2022-11-05T13:11:17.349Z,1.55
2022-11-05T13:13:51.013Z,1.17
2022-11-05T13:16:24.146Z,1.10
2022-11-05T13:18:55.232Z,1.02
2022-11-05T13:21:28.855Z,1.00
2022-11-05T13:24:03.386Z,1.00
2022-11-05T13:26:38.341Z,1.25
2022-11-05T13:29:10.179Z,1.05
2022-11-05T13:31:42.153Z,1.33
2022-11-05T13:34:12.208Z,0.95
2022-11-05T13:37:07.066Z,1.00
2022-11-05T13:39:39.256Z,0.90
2022-11-05T13:42:41.355Z,0.97
2022-11-05T13:45:24.681Z,1.10
2022-11-05T13:48:11.809Z,1.02
2022-11-05T13:51:03.886Z,1.02
2022-11-05T13:54:15.013Z,1.10
2022-11-05T13:56:59.837Z,1.30
2022-11-05T13:59:47.696Z,1.17
2022-11-05T14:02:21.158Z,1.20
2022-11-05T14:04:52.235Z,1.20
2022-11-05T14:07:24.772Z,1.10
2022-11-05T14:09:58.026Z,0.80
2022-11-05T14:12:29.184Z,1.00
2022-11-05T14:15:03.445Z,1.00
2022-11-05T14:17:36.451Z,1.00
2022-11-05T14:20:23.976Z,1.13
2022-11-05T14:22:51.809Z,0.90
2022-11-05T14:25:55.042Z,0.80
2022-11-05T14:28:48.686Z,0.90
2022-11-05T14:31:54.600Z,0.90
2022-11-05T14:34:23.917Z,0.90
2022-11-05T14:37:22.035Z,0.90
2022-11-05T14:39:50.403Z,0.90
2022-11-05T14:42:23.468Z,1.00
2022-11-05T14:45:24.197Z,1.10
2022-11-05T14:47:55.365Z,0.90
2022-11-05T14:50:30.995Z,0.90
2022-11-05T14:53:04.539Z,0.97
2022-11-05T14:55:36.029Z,0.70
2022-11-05T14:58:24.153Z,0.87
2022-11-05T15:00:53.874Z,0.97
2022-11-05T15:03:47.296Z,1.07
2022-11-05T15:06:28.354Z,1.00
2022-11-05T15:09:04.683Z,1.03
2022-11-05T15:11:36.519Z,1.10
2022-11-05T15:14:06.749Z,0.90
2022-11-05T15:16:41.098Z,1.10
2022-11-05T15:19:18.603Z,0.93
2022-11-05T15:21:46.407Z,1.17
2022-11-05T15:24:16.749Z,0.90
2022-11-05T15:26:49.197Z,1.00
2022-11-05T15:29:19.120Z,1.10
2022-11-05T15:31:48.504Z,1.17
2022-11-05T15:34:22.521Z,0.90
2022-11-05T15:36:55.547Z,1.00
2022-11-05T15:39:31.981Z,0.80
2022-11-05T15:42:02.199Z,0.80
2022-11-05T15:44:32.837Z,1.03
2022-11-05T15:47:15.563Z,1.10
2022-11-05T15:49:45.516Z,1.10
2022-11-05T15:52:15.232Z,1.03
2022-11-05T15:54:43.168Z,1.00
2022-11-05T15:57:27.448Z,1.27
2022-11-05T15:59:55.149Z,0.90
2022-11-05T16:02:31.272Z,1.10
2022-11-05T16:04:59.884Z,1.10
2022-11-05T16:07:29.072Z,1.10
2022-11-05T16:09:58.532Z,1.20
2022-11-05T16:12:36.750Z,1.20
2022-11-05T16:15:19.310Z,1.07
2022-11-05T16:17:51.613Z,1.07
2022-11-05T16:20:25.585Z,1.23
2022-11-05T16:22:55.351Z,0.97
2022-11-05T16:25:31.967Z,1.30
2022-11-05T16:28:00.914Z,1.30
2022-11-05T16:30:29.275Z,1.40
2022-11-05T16:33:04.297Z,1.40
2022-11-05T16:35:31.716Z,1.70
2022-11-05T16:38:02.259Z,1.50
2022-11-05T16:40:30.154Z,1.50
2022-11-05T16:43:10.600Z,3.00
2022-11-05T16:45:41.382Z,2.17
2022-11-05T16:48:12.710Z,1.70
2022-11-05T16:50:40.834Z,1.40
2022-11-05T16:53:08.287Z,1.10
2022-11-05T16:55:38.332Z,0.90
2022-11-05T16:58:06.860Z,1.07
2022-11-05T17:00:34.445Z,1.10
2022-11-05T17:03:01.946Z,0.87
2022-11-05T17:05:32.005Z,1.13
2022-11-05T17:08:00.486Z,1.00
2022-11-05T17:10:28.503Z,1.00
2022-11-05T17:12:56.322Z,1.00
2022-11-05T17:15:26.350Z,1.20
2022-11-05T17:17:55.169Z,1.20
2022-11-05T17:20:39.820Z,1.00
2022-11-05T17:23:10.121Z,1.10
2022-11-05T17:25:38.550Z,1.20
2022-11-05T17:28:06.823Z,1.10
2022-11-05T17:30:34.278Z,1.10
2022-11-05T17:33:01.926Z,0.90
2022-11-05T17:35:30.776Z,0.93
2022-11-05T17:37:58.401Z,1.10
2022-11-05T17:40:28.241Z,1.00
2022-11-05T17:42:55.708Z,1.03
2022-11-05T17:45:23.207Z,1.23
2022-11-05T17:47:50.664Z,1.37
2022-11-05T17:50:18.989Z,1.30
2022-11-05T17:52:47.824Z,1.43
2022-11-05T17:55:17.992Z,1.80
2022-11-05T17:57:47.191Z,1.50
2022-11-05T18:00:16.206Z,1.60
2022-11-05T18:02:43.803Z,1.50
2022-11-05T18:05:12.439Z,1.20
2022-11-05T18:07:39.913Z,1.50
2022-11-05T18:10:09.454Z,1.50
2022-11-05T18:12:36.945Z,1.70
2022-11-05T18:15:04.810Z,1.33
2022-11-05T18:17:32.460Z,1.37
2022-11-05T18:19:59.944Z,1.23
2022-11-05T18:22:27.387Z,1.50
2022-11-05T18:24:55.109Z,1.63
2022-11-05T18:27:27.399Z,1.70
2022-11-05T18:29:55.497Z,1.60
2022-11-05T18:32:22.912Z,1.63
2022-11-05T18:34:50.345Z,1.53
2022-11-05T18:37:18.281Z,1.80
2022-11-05T18:39:46.417Z,1.97
2022-11-05T18:42:13.840Z,1.80
2022-11-05T18:44:42.679Z,2.30
2022-11-05T18:47:10.547Z,2.30
2022-11-05T18:49:38.009Z,2.37
2022-11-05T18:52:05.916Z,2.33
2022-11-05T18:54:33.509Z,2.63
2022-11-05T18:57:01.000Z,3.00
2022-11-05T18:59:38.814Z,2.90
2022-11-05T19:02:09.351Z,2.70
2022-11-05T19:04:37.573Z,2.93
2022-11-05T19:07:06.179Z,3.23
2022-11-05T19:09:34.700Z,3.13
2022-11-05T19:12:02.334Z,2.97
2022-11-05T19:14:30.545Z,3.17
2022-11-05T19:16:58.547Z,3.70
2022-11-05T19:19:27.320Z,3.70
2022-11-05T19:21:54.736Z,3.47
2022-11-05T19:24:22.244Z,3.40
2022-11-05T19:26:50.269Z,3.60
2022-11-05T19:29:17.745Z,3.90
2022-11-05T19:31:45.641Z,3.67
2022-11-05T19:34:14.587Z,4.10
2022-11-05T19:36:43.700Z,4.30
2022-11-05T19:39:14.553Z,4.40
2022-11-05T19:41:42.481Z,4.93
2022-11-05T19:44:10.039Z,4.23
2022-11-05T19:46:37.548Z,4.47
2022-11-05T19:49:04.969Z,4.57
2022-11-05T19:51:33.190Z,4.80
2022-11-05T19:54:03.185Z,4.53
2022-11-05T19:56:33.468Z,4.60
2022-11-05T19:59:02.912Z,5.40
2022-11-05T20:01:31.443Z,5.20
2022-11-05T20:03:59.928Z,5.10
2022-11-05T20:06:31.729Z,5.13
2022-11-05T20:11:51.005Z,5.00
2022-11-05T20:14:18.604Z,5.30
2022-11-05T20:16:47.341Z,5.57
2022-11-05T20:19:17.043Z,5.67
2022-11-05T20:21:45.188Z,5.60
2022-11-05T20:24:17.445Z,5.83
2022-11-05T20:26:51.247Z,5.73
2022-11-05T20:29:18.669Z,6.00
2022-11-05T20:31:46.327Z,6.13
2022-11-05T20:34:14.188Z,5.93
2022-11-05T20:36:42.152Z,5.97
2022-11-05T20:39:11.890Z,5.70
2022-11-05T20:41:39.497Z,6.00
2022-11-05T20:44:08.239Z,6.13
2022-11-05T20:46:35.704Z,5.90
2022-11-05T20:49:03.264Z,6.53
2022-11-05T20:51:30.889Z,6.47
2022-11-05T20:54:00.199Z,6.93
2022-11-05T20:56:30.277Z,7.10
2022-11-05T20:58:59.573Z,6.83
2022-11-05T21:01:29.714Z,7.40
2022-11-05T21:03:57.637Z,7.43
2022-11-05T21:06:26.697Z,6.77
2022-11-05T21:08:54.985Z,7.40
2022-11-05T21:11:23.065Z,7.10
2022-11-05T21:13:50.933Z,6.73
2022-11-05T21:16:20.265Z,7.40
2022-11-05T21:18:49.382Z,7.07
2022-11-05T21:21:18.561Z,6.97
2022-11-05T21:23:46.142Z,7.73
2022-11-05T21:26:16.591Z,7.17
2022-11-05T21:28:44.101Z,7.10
2022-11-05T21:31:12.053Z,7.20
2022-11-05T21:33:39.541Z,6.97
2022-11-05T21:36:10.299Z,7.50
2022-11-05T21:38:37.958Z,7.27
2022-11-05T21:41:06.353Z,7.33
2022-11-05T21:43:34.373Z,7.70
2022-11-05T21:46:03.302Z,7.30
2022-11-05T21:48:31.389Z,7.87
2022-11-05T21:51:16.688Z,8.10
2022-11-05T21:54:03.345Z,7.57
2022-11-05T21:56:48.616Z,7.70
2022-11-05T21:59:36.497Z,8.07
2022-11-05T22:02:04.606Z,7.63
2022-11-05T22:04:34.458Z,8.00
2022-11-05T22:07:02.171Z,7.30
2022-11-05T22:09:30.957Z,7.27
2022-11-05T22:11:59.097Z,7.40
2022-11-05T22:14:26.973Z,7.30
2022-11-05T22:16:54.734Z,7.03
2022-11-05T22:19:22.575Z,6.87
2022-11-05T22:21:50.152Z,6.73
2022-11-05T22:24:18.097Z,6.57
2022-11-05T22:26:47.022Z,7.10
2022-11-05T22:29:15.495Z,6.33
2022-11-05T22:31:43.368Z,6.13
2022-11-05T22:34:11.853Z,6.10
2022-11-05T22:36:39.569Z,6.60
2022-11-05T22:39:07.384Z,6.77
2022-11-05T22:41:35.463Z,6.67
2022-11-05T22:44:04.517Z,6.70
2022-11-05T22:46:32.542Z,7.37
2022-11-05T22:49:01.004Z,7.13
2022-11-05T22:51:31.684Z,6.50
2022-11-05T22:53:59.846Z,7.13
2022-11-05T22:56:29.424Z,6.83
2022-11-05T22:58:57.722Z,6.20
2022-11-05T23:01:27.100Z,6.77
2022-11-05T23:03:56.962Z,6.70
2022-11-05T23:06:44.019Z,6.77
2022-11-05T23:09:32.716Z,5.77
2022-11-05T23:12:00.841Z,6.30
2022-11-05T23:14:28.785Z,6.10
2022-11-05T23:17:15.147Z,6.23
2022-11-05T23:20:00.376Z,5.63
2022-11-05T23:22:47.407Z,6.23
2022-11-05T23:25:18.073Z,5.97
2022-11-05T23:27:47.093Z,5.60
2022-11-05T23:30:16.864Z,5.97
2022-11-05T23:32:44.979Z,5.57
2022-11-05T23:35:12.847Z,5.40
2022-11-05T23:37:58.262Z,6.10
2022-11-05T23:40:27.904Z,6.03
2022-11-05T23:43:13.966Z,6.07
2022-11-05T23:46:00.232Z,5.20
2022-11-05T23:48:32.814Z,5.47
2022-11-05T23:51:03.347Z,5.80
2022-11-05T23:53:32.616Z,5.80
2022-11-05T23:56:02.097Z,6.23
2022-11-05T23:58:29.569Z,6.17
